createdAt,value
2018-11-14T00:31:38.532Z,18.87
2018-11-14T01:01:29.741Z,19.42
2018-11-14T01:07:05.552Z,19.20
2018-11-14T01:09:48.854Z,19.52
2018-11-14T01:18:52.963Z,19.47
2018-11-14T01:21:35.198Z,19.15
2018-11-14T01:24:27.478Z,19.55
2018-11-14T01:27:16.779Z,21.00
2018-11-14T01:52:09.763Z,23.20
2018-11-14T01:57:38.668Z,24.92
2018-11-14T02:03:12.555Z,21.75
2018-11-14T02:05:58.952Z,21.57
2018-11-14T02:08:36.589Z,21.05
2018-11-14T02:11:24.104Z,21.68
2018-11-14T02:14:02.076Z,21.87
2018-11-14T02:24:57.087Z,23.62
2018-11-14T02:27:41.236Z,22.90
2018-11-14T02:33:12.006Z,22.15
2018-11-14T02:38:30.985Z,24.35
2018-11-14T02:41:18.297Z,24.50
2018-11-14T02:44:06.142Z,25.15
2018-11-14T02:46:51.273Z,23.40
2018-11-14T02:49:33.717Z,23.42
2018-11-14T02:52:10.511Z,24.25
2018-11-14T02:54:48.228Z,22.82
2018-11-14T02:57:26.288Z,22.77
2018-11-14T03:08:42.826Z,21.77
2018-11-14T03:11:23.752Z,22.75
2018-11-14T03:14:07.685Z,25.62
2018-11-14T03:16:49.934Z,24.50
2018-11-14T03:19:31.878Z,24.97
2018-11-14T03:24:50.885Z,24.60
2018-11-14T03:27:29.030Z,22.93
2018-11-14T03:30:09.210Z,23.20
2018-11-14T03:32:42.505Z,22.27
2018-11-14T03:35:19.388Z,21.97
2018-11-14T03:38:07.735Z,22.98
2018-11-14T03:40:40.963Z,22.52
2018-11-14T03:43:12.505Z,23.37
2018-11-14T03:45:46.902Z,23.00
2018-11-14T03:48:19.806Z,23.60
2018-11-14T03:50:51.515Z,23.75
2018-11-14T03:53:26.403Z,23.02
2018-11-14T03:56:07.540Z,23.38
2018-11-14T04:01:43.518Z,24.43
2018-11-14T04:04:27.090Z,26.23
2018-11-14T04:07:01.724Z,26.35
2018-11-14T04:09:43.303Z,27.42
2018-11-14T04:12:21.579Z,28.50
2018-11-14T04:17:57.421Z,28.80
2018-11-14T04:20:36.299Z,33.60
2018-11-14T04:34:36.225Z,39.33
2018-11-14T04:40:10.094Z,39.80
2018-11-14T04:42:56.716Z,38.03
2018-11-14T04:48:27.750Z,38.73
2018-11-14T04:53:58.757Z,38.70
2018-11-14T05:02:32.852Z,36.13
2018-11-14T05:08:06.916Z,34.55
2018-11-14T05:19:08.211Z,37.35
2018-11-14T05:21:59.807Z,36.03
2018-11-14T05:27:24.108Z,35.33
2018-11-14T05:32:51.046Z,33.48
2018-11-14T05:35:34.709Z,31.15
2018-11-14T05:45:22.628Z,28.38
2018-11-14T05:48:06.691Z,27.67
2018-11-14T05:50:47.832Z,27.90
2018-11-14T06:02:16.573Z,32.67
2018-11-14T06:05:01.447Z,34.27
2018-11-14T08:19:40.722Z,26.10
2018-11-14T08:24:54.910Z,26.48
2018-11-14T17:00:06.670Z,24.57
2018-11-14T17:42:23.908Z,26.10
2018-11-14T17:55:41.537Z,26.20
2018-11-14T17:58:10.483Z,26.23
2018-11-14T18:00:39.287Z,25.35
2018-11-14T18:03:08.130Z,25.72
2018-11-14T18:05:36.963Z,25.52
2018-11-14T18:08:05.956Z,27.52
2018-11-14T18:10:34.979Z,27.02
2018-11-14T18:13:03.931Z,26.20
2018-11-14T18:15:33.641Z,32.10
2018-11-14T18:18:02.773Z,27.70
2018-11-14T18:20:32.706Z,26.15
2018-11-14T18:23:01.979Z,25.85
2018-11-14T18:25:30.742Z,35.45
2018-11-14T18:27:59.678Z,27.82
2018-11-14T18:30:30.181Z,26.73
2018-11-14T18:33:00.194Z,34.80
2018-11-14T18:35:29.252Z,35.50
2018-11-14T18:37:59.147Z,40.80
2018-11-14T18:40:29.506Z,44.03
2018-11-14T18:42:58.255Z,45.63
2018-11-14T18:45:28.651Z,48.45
2018-11-14T18:47:58.582Z,71.07
2018-11-14T18:50:27.690Z,67.97
2018-11-14T18:52:56.526Z,58.78
2018-11-14T18:55:26.832Z,43.60
2018-11-14T18:57:55.859Z,31.40
2018-11-14T19:00:25.890Z,26.55
2018-11-14T19:02:54.612Z,42.62
2018-11-14T19:05:23.327Z,39.95
2018-11-14T19:07:52.064Z,57.95
2018-11-14T19:10:25.526Z,54.38
2018-11-14T19:12:54.455Z,59.45
2018-11-14T19:15:25.243Z,55.25
2018-11-14T19:17:54.064Z,49.45
2018-11-14T19:20:25.017Z,50.67
2018-11-14T19:22:54.477Z,54.50
2018-11-14T19:25:24.605Z,56.20
2018-11-14T19:27:53.404Z,59.93
2018-11-14T19:30:26.405Z,63.05
2018-11-14T19:32:55.752Z,64.03
2018-11-14T19:35:25.679Z,69.45
2018-11-14T19:37:55.617Z,70.47
2018-11-14T19:40:26.392Z,73.62
2018-11-14T19:42:56.775Z,77.95
2018-11-14T19:45:27.773Z,78.92
2018-11-14T19:47:56.939Z,83.35
2018-11-14T19:50:26.062Z,86.65
2018-11-14T19:52:54.785Z,83.70
2018-11-14T19:55:24.753Z,90.63
2018-11-14T19:57:54.727Z,104.45
2018-11-14T20:00:27.564Z,96.85
2018-11-14T20:02:56.425Z,86.15
2018-11-14T20:05:25.378Z,86.60
2018-11-14T20:07:54.151Z,91.07
2018-11-14T20:10:24.434Z,84.10
2018-11-14T20:12:53.417Z,80.03
2018-11-14T20:15:23.467Z,80.07
2018-11-14T20:17:52.497Z,81.90
2018-11-14T20:20:26.436Z,79.95
2018-11-14T20:22:55.744Z,117.47
2018-11-14T20:25:24.709Z,116.73
2018-11-14T20:27:53.685Z,103.05
2018-11-14T20:30:24.820Z,143.93
2018-11-14T20:32:54.327Z,85.97
2018-11-14T20:35:23.933Z,70.83
2018-11-14T20:37:53.611Z,69.07
2018-11-14T20:40:22.761Z,66.53
2018-11-14T20:42:53.776Z,67.78
2018-11-14T20:45:27.456Z,68.28
2018-11-14T20:47:56.545Z,69.50
2018-11-14T20:50:26.047Z,75.87
2018-11-14T20:52:57.550Z,77.32
2018-11-14T20:55:26.564Z,77.05
2018-11-14T20:57:55.718Z,87.13
2018-11-14T21:00:25.791Z,94.70
2018-11-14T21:02:54.680Z,97.33
2018-11-14T21:05:24.798Z,102.77
2018-11-14T21:07:54.006Z,104.67
2018-11-14T21:10:25.270Z,102.10
2018-11-14T21:12:54.610Z,109.12
2018-11-14T21:15:24.823Z,94.07
2018-11-14T21:17:54.886Z,82.85
2018-11-14T21:20:23.656Z,85.75
2018-11-14T21:22:52.673Z,91.77
2018-11-14T21:25:22.220Z,93.27
2018-11-14T21:27:51.483Z,100.90
2018-11-14T21:30:21.542Z,115.70
2018-11-14T21:32:50.332Z,110.45
2018-11-14T21:35:22.493Z,92.43
2018-11-14T21:37:52.608Z,95.15
2018-11-14T21:40:21.338Z,94.15
2018-11-14T21:42:50.118Z,98.22
2018-11-14T21:45:20.709Z,95.40
2018-11-14T21:47:54.513Z,96.60
2018-11-14T21:50:24.660Z,101.38
2018-11-14T21:52:55.630Z,84.62
2018-11-14T21:55:24.424Z,65.10
2018-11-14T21:57:53.192Z,61.95
2018-11-14T22:00:40.716Z,74.25
2018-11-14T22:03:10.102Z,90.00
2018-11-14T22:05:39.239Z,96.50
2018-11-14T22:08:10.662Z,102.72
2018-11-14T22:10:42.325Z,68.35
2018-11-14T22:13:11.131Z,81.65
2018-11-14T22:15:39.906Z,68.07
2018-11-14T22:18:08.674Z,61.98
2018-11-14T22:20:37.452Z,67.05
2018-11-14T22:23:06.210Z,60.23
2018-11-14T22:25:34.973Z,46.68
2018-11-14T22:28:03.916Z,70.65
2018-11-14T22:30:33.465Z,65.05
2018-11-14T22:33:02.292Z,80.55
2018-11-14T22:35:32.164Z,75.40
2018-11-14T22:38:00.936Z,70.08
2018-11-14T22:40:30.875Z,69.95
2018-11-14T22:42:59.622Z,70.67
2018-11-14T22:45:29.753Z,66.47
2018-11-14T22:47:59.868Z,62.25
2018-11-14T22:50:28.646Z,62.70
2018-11-14T22:52:57.375Z,59.42
2018-11-14T22:55:26.684Z,62.13
2018-11-14T22:57:55.782Z,66.42
2018-11-14T23:00:33.849Z,62.85
2018-11-14T23:03:03.664Z,56.53
2018-11-14T23:05:32.647Z,57.90
2018-11-14T23:08:01.667Z,60.05
2018-11-14T23:10:30.515Z,63.33
2018-11-14T23:12:59.236Z,64.75
2018-11-14T23:15:30.394Z,65.60
2018-11-14T23:17:59.179Z,61.53
2018-11-14T23:20:29.157Z,62.78
2018-11-14T23:22:57.969Z,69.60
2018-11-14T23:25:26.994Z,72.37
2018-11-14T23:27:56.353Z,74.22
2018-11-14T23:30:27.886Z,77.65
2018-11-14T23:32:58.473Z,76.20
2018-11-14T23:35:28.593Z,77.80
2018-11-14T23:37:58.698Z,77.65
2018-11-14T23:40:27.572Z,75.43
2018-11-14T23:42:56.375Z,75.50
2018-11-14T23:45:28.213Z,76.05
2018-11-14T23:47:57.004Z,74.90
2018-11-14T23:50:28.104Z,67.27
2018-11-14T23:52:57.726Z,68.55
2018-11-14T23:55:27.074Z,60.67
2018-11-14T23:57:56.207Z,65.08
